CWUW

Dewar Lakes Airport

Canada
METAR CWUW 220900Z AUTO 07008KT ////SM //// NCD M21/M24 A2964
Observed Flight Rules
Jan-22 @ 09:00 UTC (54 minutes ago)
Wind Clouds
70° at 8 knots
  • Clear skies
Temperatures Readings
Current -21°C / -6°F
Dewpoint -24°C / -11°F
Humidity 77%
Altimeter 29.64" Hg
Pressure 1004 hPa
Elevation 527
METAR CWUW 220900Z AUTO 07008KT ////SM //// NCD M21/M24 A2964
Observed Flight Rules
Jan-22 @ 09:00 UTC
(54 minutes ago)
Wind
70° at 8 knots
Clouds
  • Clear skies
Temperature Dewpoint
-21°C / -6°F -24°C / -11°F
Humidity Altimeter Pressure
77% 29.64" Hg 1004 hPa